sensor_id;sensor_type;location;lat;lon;timestamp;P1;durP1;ratioP1;P2;durP2;ratioP2
75698;SDS011;64313;51.018;13.742;2022-11-20T00:01:13;18.08;;;6.90;;
75698;SDS011;64313;51.018;13.742;2022-11-20T00:03:41;18.13;;;7.07;;
75698;SDS011;64313;51.018;13.742;2022-11-20T00:06:08;18.30;;;7.68;;
75698;SDS011;64313;51.018;13.742;2022-11-20T00:08:35;15.57;;;6.82;;
75698;SDS011;64313;51.018;13.742;2022-11-20T00:11:04;15.30;;;6.28;;
75698;SDS011;64313;51.018;13.742;2022-11-20T00:13:30;12.32;;;5.85;;
75698;SDS011;64313;51.018;13.742;2022-11-20T00:15:57;12.82;;;5.93;;
75698;SDS011;64313;51.018;13.742;2022-11-20T00:18:23;14.00;;;6.15;;
75698;SDS011;64313;51.018;13.742;2022-11-20T00:20:48;12.82;;;5.75;;
75698;SDS011;64313;51.018;13.742;2022-11-20T00:23:14;12.25;;;5.50;;
75698;SDS011;64313;51.018;13.742;2022-11-20T00:25:40;13.07;;;5.63;;
75698;SDS011;64313;51.018;13.742;2022-11-20T00:28:06;13.82;;;5.47;;
75698;SDS011;64313;51.018;13.742;2022-11-20T00:30:31;12.90;;;5.63;;
75698;SDS011;64313;51.018;13.742;2022-11-20T00:32:56;12.77;;;5.75;;
75698;SDS011;64313;51.018;13.742;2022-11-20T00:35:23;11.63;;;5.30;;
75698;SDS011;64313;51.018;13.742;2022-11-20T00:37:48;13.75;;;5.63;;
75698;SDS011;64313;51.018;13.742;2022-11-20T00:40:13;13.98;;;5.50;;
75698;SDS011;64313;51.018;13.742;2022-11-20T00:42:39;13.52;;;5.35;;
75698;SDS011;64313;51.018;13.742;2022-11-20T00:45:05;14.10;;;6.22;;
75698;SDS011;64313;51.018;13.742;2022-11-20T00:47:30;12.82;;;5.30;;
75698;SDS011;64313;51.018;13.742;2022-11-20T00:49:55;11.63;;;5.25;;
75698;SDS011;64313;51.018;13.742;2022-11-20T00:52:21;11.30;;;4.65;;
75698;SDS011;64313;51.018;13.742;2022-11-20T00:54:46;13.15;;;4.97;;
75698;SDS011;64313;51.018;13.742;2022-11-20T00:57:11;11.73;;;5.15;;
75698;SDS011;64313;51.018;13.742;2022-11-20T00:59:37;12.43;;;5.47;;
75698;SDS011;64313;51.018;13.742;2022-11-20T01:02:02;13.18;;;5.20;;
75698;SDS011;64313;51.018;13.742;2022-11-20T01:04:27;11.77;;;5.43;;
75698;SDS011;64313;51.018;13.742;2022-11-20T01:06:53;11.38;;;5.10;;
75698;SDS011;64313;51.018;13.742;2022-11-20T01:09:18;12.25;;;4.90;;
75698;SDS011;64313;51.018;13.742;2022-11-20T01:11:44;10.95;;;4.80;;
75698;SDS011;64313;51.018;13.742;2022-11-20T01:14:11;14.60;;;5.90;;
75698;SDS011;64313;51.018;13.742;2022-11-20T01:16:41;11.75;;;4.97;;
75698;SDS011;64313;51.018;13.742;2022-11-20T01:19:10;11.02;;;4.68;;
75698;SDS011;64313;51.018;13.742;2022-11-20T01:21:38;13.05;;;4.68;;
75698;SDS011;64313;51.018;13.742;2022-11-20T01:24:05;10.43;;;4.63;;
75698;SDS011;64313;51.018;13.742;2022-11-20T01:26:33;12.55;;;4.57;;
75698;SDS011;64313;51.018;13.742;2022-11-20T01:29:00;9.15;;;4.22;;
75698;SDS011;64313;51.018;13.742;2022-11-20T01:31:31;11.73;;;4.32;;
75698;SDS011;64313;51.018;13.742;2022-11-20T01:34:00;11.30;;;4.63;;
75698;SDS011;64313;51.018;13.742;2022-11-20T01:36:28;11.50;;;4.07;;
75698;SDS011;64313;51.018;13.742;2022-11-20T01:38:56;11.77;;;4.53;;
75698;SDS011;64313;51.018;13.742;2022-11-20T01:41:25;9.95;;;4.53;;
75698;SDS011;64313;51.018;13.742;2022-11-20T01:44:12;11.00;;;4.38;;
75698;SDS011;64313;51.018;13.742;2022-11-20T01:46:51;10.00;;;4.70;;
75698;SDS011;64313;51.018;13.742;2022-11-20T01:49:29;11.70;;;4.88;;
75698;SDS011;64313;51.018;13.742;2022-11-20T01:51:59;11.60;;;4.85;;
75698;SDS011;64313;51.018;13.742;2022-11-20T01:54:31;10.82;;;4.40;;
75698;SDS011;64313;51.018;13.742;2022-11-20T01:57:01;10.88;;;4.40;;
75698;SDS011;64313;51.018;13.742;2022-11-20T01:59:29;13.48;;;5.18;;
75698;SDS011;64313;51.018;13.742;2022-11-20T02:01:55;11.30;;;4.82;;
75698;SDS011;64313;51.018;13.742;2022-11-20T02:04:20;12.30;;;5.18;;
75698;SDS011;64313;51.018;13.742;2022-11-20T02:06:58;13.27;;;5.32;;
75698;SDS011;64313;51.018;13.742;2022-11-20T02:09:25;13.27;;;4.82;;
75698;SDS011;64313;51.018;13.742;2022-11-20T02:11:51;14.02;;;5.40;;
75698;SDS011;64313;51.018;13.742;2022-11-20T02:14:17;11.57;;;5.03;;
75698;SDS011;64313;51.018;13.742;2022-11-20T02:16:44;12.35;;;5.00;;
75698;SDS011;64313;51.018;13.742;2022-11-20T02:19:23;13.98;;;5.38;;
75698;SDS011;64313;51.018;13.742;2022-11-20T02:22:07;11.90;;;4.90;;
75698;SDS011;64313;51.018;13.742;2022-11-20T02:24:39;14.82;;;5.65;;
75698;SDS011;64313;51.018;13.742;2022-11-20T02:27:06;14.15;;;5.47;;
75698;SDS011;64313;51.018;13.742;2022-11-20T02:29:36;12.48;;;5.13;;
75698;SDS011;64313;51.018;13.742;2022-11-20T02:32:05;12.50;;;5.18;;
75698;SDS011;64313;51.018;13.742;2022-11-20T02:34:30;14.63;;;5.80;;
75698;SDS011;64313;51.018;13.742;2022-11-20T02:36:56;17.70;;;5.97;;
75698;SDS011;64313;51.018;13.742;2022-11-20T02:39:22;11.35;;;4.90;;
75698;SDS011;64313;51.018;13.742;2022-11-20T02:41:50;11.57;;;5.30;;
75698;SDS011;64313;51.018;13.742;2022-11-20T02:44:17;12.43;;;5.38;;
75698;SDS011;64313;51.018;13.742;2022-11-20T02:46:43;11.68;;;5.60;;
75698;SDS011;64313;51.018;13.742;2022-11-20T02:49:08;11.43;;;4.95;;
75698;SDS011;64313;51.018;13.742;2022-11-20T02:51:33;11.90;;;4.95;;
75698;SDS011;64313;51.018;13.742;2022-11-20T02:53:59;11.90;;;5.07;;
75698;SDS011;64313;51.018;13.742;2022-11-20T02:56:24;12.85;;;5.10;;
75698;SDS011;64313;51.018;13.742;2022-11-20T02:58:50;11.88;;;4.70;;
75698;SDS011;64313;51.018;13.742;2022-11-20T03:01:16;11.20;;;4.72;;
75698;SDS011;64313;51.018;13.742;2022-11-20T03:03:43;11.70;;;4.90;;
75698;SDS011;64313;51.018;13.742;2022-11-20T03:06:08;13.07;;;5.10;;
75698;SDS011;64313;51.018;13.742;2022-11-20T03:08:34;13.63;;;5.45;;
75698;SDS011;64313;51.018;13.742;2022-11-20T03:11:04;12.02;;;5.20;;
75698;SDS011;64313;51.018;13.742;2022-11-20T03:13:31;12.23;;;4.45;;
75698;SDS011;64313;51.018;13.742;2022-11-20T03:15:56;11.90;;;5.35;;
75698;SDS011;64313;51.018;13.742;2022-11-20T03:18:22;11.07;;;4.72;;
75698;SDS011;64313;51.018;13.742;2022-11-20T03:20:47;11.40;;;4.90;;
75698;SDS011;64313;51.018;13.742;2022-11-20T03:23:13;12.77;;;4.53;;
75698;SDS011;64313;51.018;13.742;2022-11-20T03:25:38;11.02;;;4.55;;
75698;SDS011;64313;51.018;13.742;2022-11-20T03:28:03;11.48;;;4.72;;
75698;SDS011;64313;51.018;13.742;2022-11-20T03:30:29;12.05;;;4.80;;
75698;SDS011;64313;51.018;13.742;2022-11-20T03:32:54;10.82;;;4.85;;
75698;SDS011;64313;51.018;13.742;2022-11-20T03:35:20;13.57;;;5.25;;
75698;SDS011;64313;51.018;13.742;2022-11-20T03:37:45;10.90;;;4.72;;
75698;SDS011;64313;51.018;13.742;2022-11-20T03:40:10;11.65;;;4.90;;
75698;SDS011;64313;51.018;13.742;2022-11-20T03:42:36;13.00;;;5.22;;
75698;SDS011;64313;51.018;13.742;2022-11-20T03:45:12;13.40;;;5.25;;
75698;SDS011;64313;51.018;13.742;2022-11-20T03:47:38;12.65;;;5.60;;
75698;SDS011;64313;51.018;13.742;2022-11-20T03:50:03;13.25;;;4.82;;
75698;SDS011;64313;51.018;13.742;2022-11-20T03:52:29;11.75;;;4.68;;
75698;SDS011;64313;51.018;13.742;2022-11-20T03:54:55;15.60;;;5.43;;
75698;SDS011;64313;51.018;13.742;2022-11-20T03:57:20;12.07;;;5.32;;
75698;SDS011;64313;51.018;13.742;2022-11-20T03:59:45;15.18;;;5.82;;
75698;SDS011;64313;51.018;13.742;2022-11-20T04:02:11;14.57;;;6.10;;
75698;SDS011;64313;51.018;13.742;2022-11-20T04:04:36;13.65;;;5.90;;
75698;SDS011;64313;51.018;13.742;2022-11-20T04:07:02;12.98;;;5.82;;
75698;SDS011;64313;51.018;13.742;2022-11-20T04:09:27;12.25;;;5.30;;
75698;SDS011;64313;51.018;13.742;2022-11-20T04:11:53;13.13;;;5.93;;
75698;SDS011;64313;51.018;13.742;2022-11-20T04:14:18;14.10;;;5.55;;
75698;SDS011;64313;51.018;13.742;2022-11-20T04:16:45;14.70;;;5.60;;
75698;SDS011;64313;51.018;13.742;2022-11-20T04:19:11;12.88;;;4.95;;
75698;SDS011;64313;51.018;13.742;2022-11-20T04:21:39;13.40;;;5.28;;
75698;SDS011;64313;51.018;13.742;2022-11-20T04:24:05;12.38;;;5.18;;
75698;SDS011;64313;51.018;13.742;2022-11-20T04:26:31;13.30;;;5.25;;
75698;SDS011;64313;51.018;13.742;2022-11-20T04:28:57;11.93;;;5.45;;
75698;SDS011;64313;51.018;13.742;2022-11-20T04:31:24;13.68;;;4.85;;
75698;SDS011;64313;51.018;13.742;2022-11-20T04:33:51;13.25;;;5.15;;
75698;SDS011;64313;51.018;13.742;2022-11-20T04:36:18;16.25;;;5.68;;
75698;SDS011;64313;51.018;13.742;2022-11-20T04:38:45;10.77;;;4.57;;
75698;SDS011;64313;51.018;13.742;2022-11-20T04:41:13;15.43;;;5.05;;
75698;SDS011;64313;51.018;13.742;2022-11-20T04:43:40;13.05;;;5.20;;
75698;SDS011;64313;51.018;13.742;2022-11-20T04:46:06;12.05;;;5.40;;
75698;SDS011;64313;51.018;13.742;2022-11-20T04:48:31;11.98;;;5.38;;
75698;SDS011;64313;51.018;13.742;2022-11-20T04:50:57;11.10;;;4.65;;
75698;SDS011;64313;51.018;13.742;2022-11-20T04:53:23;13.57;;;5.55;;
75698;SDS011;64313;51.018;13.742;2022-11-20T04:58:14;15.55;;;4.85;;
75698;SDS011;64313;51.018;13.742;2022-11-20T05:00:40;12.02;;;4.68;;
75698;SDS011;64313;51.018;13.742;2022-11-20T05:03:05;11.48;;;4.35;;
75698;SDS011;64313;51.018;13.742;2022-11-20T05:05:33;9.95;;;4.13;;
75698;SDS011;64313;51.018;13.742;2022-11-20T05:07:59;10.35;;;3.95;;
75698;SDS011;64313;51.018;13.742;2022-11-20T05:10:25;11.10;;;4.32;;
75698;SDS011;64313;51.018;13.742;2022-11-20T05:15:16;10.83;;;3.63;;
75698;SDS011;64313;51.018;13.742;2022-11-20T05:17:46;11.90;;;4.15;;
75698;SDS011;64313;51.018;13.742;2022-11-20T05:20:12;9.90;;;3.92;;
75698;SDS011;64313;51.018;13.742;2022-11-20T05:22:38;10.20;;;3.88;;
75698;SDS011;64313;51.018;13.742;2022-11-20T05:25:03;12.40;;;4.65;;
75698;SDS011;64313;51.018;13.742;2022-11-20T05:27:28;13.55;;;6.32;;
75698;SDS011;64313;51.018;13.742;2022-11-20T05:29:54;11.73;;;4.88;;
75698;SDS011;64313;51.018;13.742;2022-11-20T05:32:19;10.10;;;4.32;;
75698;SDS011;64313;51.018;13.742;2022-11-20T05:34:44;10.18;;;4.03;;
75698;SDS011;64313;51.018;13.742;2022-11-20T05:37:10;10.52;;;4.15;;
75698;SDS011;64313;51.018;13.742;2022-11-20T05:39:35;9.77;;;4.03;;
75698;SDS011;64313;51.018;13.742;2022-11-20T05:42:00;10.13;;;3.90;;
75698;SDS011;64313;51.018;13.742;2022-11-20T05:44:45;10.52;;;3.92;;
75698;SDS011;64313;51.018;13.742;2022-11-20T05:47:10;10.40;;;4.13;;
75698;SDS011;64313;51.018;13.742;2022-11-20T05:49:35;8.00;;;3.30;;
75698;SDS011;64313;51.018;13.742;2022-11-20T05:52:01;8.70;;;3.40;;
75698;SDS011;64313;51.018;13.742;2022-11-20T05:54:26;8.45;;;3.65;;
75698;SDS011;64313;51.018;13.742;2022-11-20T05:56:51;9.52;;;4.00;;
75698;SDS011;64313;51.018;13.742;2022-11-20T05:59:16;9.18;;;3.35;;
75698;SDS011;64313;51.018;13.742;2022-11-20T06:01:42;8.80;;;3.35;;
75698;SDS011;64313;51.018;13.742;2022-11-20T06:04:07;7.97;;;3.50;;
75698;SDS011;64313;51.018;13.742;2022-11-20T06:06:32;9.02;;;3.60;;
75698;SDS011;64313;51.018;13.742;2022-11-20T06:08:58;9.38;;;3.50;;
75698;SDS011;64313;51.018;13.742;2022-11-20T06:11:24;8.85;;;3.22;;
75698;SDS011;64313;51.018;13.742;2022-11-20T06:13:50;10.02;;;3.72;;
75698;SDS011;64313;51.018;13.742;2022-11-20T06:16:17;9.23;;;3.90;;
75698;SDS011;64313;51.018;13.742;2022-11-20T06:18:44;11.00;;;4.00;;
75698;SDS011;64313;51.018;13.742;2022-11-20T06:21:11;9.48;;;3.65;;
75698;SDS011;64313;51.018;13.742;2022-11-20T06:23:41;12.82;;;4.10;;
75698;SDS011;64313;51.018;13.742;2022-11-20T06:26:08;9.73;;;3.78;;
75698;SDS011;64313;51.018;13.742;2022-11-20T06:28:35;8.88;;;3.70;;
75698;SDS011;64313;51.018;13.742;2022-11-20T06:31:01;10.65;;;4.10;;
75698;SDS011;64313;51.018;13.742;2022-11-20T06:33:27;10.60;;;3.47;;
75698;SDS011;64313;51.018;13.742;2022-11-20T06:35:55;9.70;;;3.88;;
75698;SDS011;64313;51.018;13.742;2022-11-20T06:38:22;9.25;;;3.67;;
75698;SDS011;64313;51.018;13.742;2022-11-20T06:40:47;11.35;;;3.78;;
75698;SDS011;64313;51.018;13.742;2022-11-20T06:43:13;9.90;;;3.95;;
75698;SDS011;64313;51.018;13.742;2022-11-20T06:45:38;9.85;;;3.58;;
75698;SDS011;64313;51.018;13.742;2022-11-20T06:48:03;10.60;;;4.28;;
75698;SDS011;64313;51.018;13.742;2022-11-20T06:50:29;9.25;;;3.53;;
75698;SDS011;64313;51.018;13.742;2022-11-20T06:52:54;10.60;;;4.20;;
75698;SDS011;64313;51.018;13.742;2022-11-20T06:55:20;10.35;;;4.00;;
75698;SDS011;64313;51.018;13.742;2022-11-20T06:57:45;9.25;;;3.92;;
75698;SDS011;64313;51.018;13.742;2022-11-20T07:00:11;9.82;;;4.15;;
75698;SDS011;64313;51.018;13.742;2022-11-20T07:02:36;9.98;;;3.75;;
75698;SDS011;64313;51.018;13.742;2022-11-20T07:05:02;8.57;;;3.75;;
75698;SDS011;64313;51.018;13.742;2022-11-20T07:07:27;8.73;;;3.67;;
75698;SDS011;64313;51.018;13.742;2022-11-20T07:09:53;9.77;;;3.50;;
75698;SDS011;64313;51.018;13.742;2022-11-20T07:12:18;10.20;;;4.13;;
75698;SDS011;64313;51.018;13.742;2022-11-20T07:14:43;9.82;;;3.35;;
75698;SDS011;64313;51.018;13.742;2022-11-20T07:17:09;10.80;;;4.28;;
75698;SDS011;64313;51.018;13.742;2022-11-20T07:19:34;9.77;;;3.75;;
75698;SDS011;64313;51.018;13.742;2022-11-20T07:21:59;8.48;;;3.58;;
75698;SDS011;64313;51.018;13.742;2022-11-20T07:24:24;9.35;;;3.90;;
75698;SDS011;64313;51.018;13.742;2022-11-20T07:26:50;9.57;;;3.78;;
75698;SDS011;64313;51.018;13.742;2022-11-20T07:29:15;8.88;;;3.60;;
75698;SDS011;64313;51.018;13.742;2022-11-20T07:31:41;10.38;;;4.07;;
75698;SDS011;64313;51.018;13.742;2022-11-20T07:34:07;9.52;;;3.70;;
75698;SDS011;64313;51.018;13.742;2022-11-20T07:36:33;9.80;;;3.58;;
75698;SDS011;64313;51.018;13.742;2022-11-20T07:38:59;11.10;;;4.20;;
75698;SDS011;64313;51.018;13.742;2022-11-20T07:41:24;10.52;;;4.35;;
75698;SDS011;64313;51.018;13.742;2022-11-20T07:43:49;13.13;;;4.88;;
75698;SDS011;64313;51.018;13.742;2022-11-20T07:46:15;11.13;;;4.38;;
75698;SDS011;64313;51.018;13.742;2022-11-20T07:48:40;13.55;;;5.57;;
75698;SDS011;64313;51.018;13.742;2022-11-20T07:51:05;13.98;;;5.38;;
75698;SDS011;64313;51.018;13.742;2022-11-20T07:53:31;16.75;;;6.35;;
75698;SDS011;64313;51.018;13.742;2022-11-20T07:55:59;12.48;;;5.80;;
75698;SDS011;64313;51.018;13.742;2022-11-20T07:58:31;10.90;;;5.32;;
75698;SDS011;64313;51.018;13.742;2022-11-20T08:01:02;14.00;;;5.38;;
75698;SDS011;64313;51.018;13.742;2022-11-20T08:03:28;12.23;;;5.07;;
75698;SDS011;64313;51.018;13.742;2022-11-20T08:05:54;14.00;;;5.85;;
75698;SDS011;64313;51.018;13.742;2022-11-20T08:08:24;13.02;;;5.43;;
75698;SDS011;64313;51.018;13.742;2022-11-20T08:10:49;15.52;;;6.32;;
75698;SDS011;64313;51.018;13.742;2022-11-20T08:13:15;14.82;;;5.78;;
75698;SDS011;64313;51.018;13.742;2022-11-20T08:15:58;14.23;;;5.63;;
75698;SDS011;64313;51.018;13.742;2022-11-20T08:18:24;14.93;;;6.35;;
75698;SDS011;64313;51.018;13.742;2022-11-20T08:20:49;15.63;;;6.00;;
75698;SDS011;64313;51.018;13.742;2022-11-20T08:23:14;14.70;;;6.15;;
75698;SDS011;64313;51.018;13.742;2022-11-20T08:25:40;14.18;;;6.28;;
75698;SDS011;64313;51.018;13.742;2022-11-20T08:28:06;16.40;;;6.72;;
75698;SDS011;64313;51.018;13.742;2022-11-20T08:30:33;16.70;;;6.28;;
75698;SDS011;64313;51.018;13.742;2022-11-20T08:33:00;15.88;;;6.60;;
75698;SDS011;64313;51.018;13.742;2022-11-20T08:35:34;13.52;;;6.03;;
75698;SDS011;64313;51.018;13.742;2022-11-20T08:38:06;16.55;;;6.35;;
75698;SDS011;64313;51.018;13.742;2022-11-20T08:40:32;15.10;;;6.45;;
75698;SDS011;64313;51.018;13.742;2022-11-20T08:42:58;14.93;;;6.20;;
75698;SDS011;64313;51.018;13.742;2022-11-20T08:45:23;14.02;;;6.18;;
75698;SDS011;64313;51.018;13.742;2022-11-20T08:47:48;15.77;;;6.57;;
75698;SDS011;64313;51.018;13.742;2022-11-20T08:50:14;18.08;;;6.95;;
75698;SDS011;64313;51.018;13.742;2022-11-20T08:52:41;16.38;;;6.55;;
75698;SDS011;64313;51.018;13.742;2022-11-20T08:55:07;17.17;;;6.72;;
75698;SDS011;64313;51.018;13.742;2022-11-20T08:57:33;16.08;;;6.70;;
75698;SDS011;64313;51.018;13.742;2022-11-20T08:59:59;15.85;;;6.60;;
75698;SDS011;64313;51.018;13.742;2022-11-20T09:02:25;19.20;;;7.10;;
75698;SDS011;64313;51.018;13.742;2022-11-20T09:04:50;14.90;;;6.45;;
75698;SDS011;64313;51.018;13.742;2022-11-20T09:07:16;18.02;;;7.55;;
75698;SDS011;64313;51.018;13.742;2022-11-20T09:09:41;19.77;;;7.72;;
75698;SDS011;64313;51.018;13.742;2022-11-20T09:12:06;18.27;;;7.05;;
75698;SDS011;64313;51.018;13.742;2022-11-20T09:14:32;18.42;;;7.28;;
75698;SDS011;64313;51.018;13.742;2022-11-20T09:19:24;16.98;;;6.47;;
75698;SDS011;64313;51.018;13.742;2022-11-20T09:21:50;16.58;;;7.22;;
75698;SDS011;64313;51.018;13.742;2022-11-20T09:24:15;15.93;;;7.03;;
75698;SDS011;64313;51.018;13.742;2022-11-20T09:26:41;16.70;;;7.22;;
75698;SDS011;64313;51.018;13.742;2022-11-20T09:29:06;19.20;;;7.32;;
75698;SDS011;64313;51.018;13.742;2022-11-20T09:31:31;14.80;;;6.95;;
75698;SDS011;64313;51.018;13.742;2022-11-20T09:33:57;16.88;;;7.07;;
75698;SDS011;64313;51.018;13.742;2022-11-20T09:36:22;16.83;;;7.20;;
75698;SDS011;64313;51.018;13.742;2022-11-20T09:38:48;14.75;;;7.03;;
75698;SDS011;64313;51.018;13.742;2022-11-20T09:55:37;14.55;;;6.03;;
75698;SDS011;64313;51.018;13.742;2022-11-20T09:58:11;15.98;;;7.18;;
75698;SDS011;64313;51.018;13.742;2022-11-20T10:00:42;15.75;;;6.80;;
75698;SDS011;64313;51.018;13.742;2022-11-20T10:03:12;20.02;;;7.88;;
75698;SDS011;64313;51.018;13.742;2022-11-20T10:05:43;16.33;;;6.80;;
75698;SDS011;64313;51.018;13.742;2022-11-20T10:08:33;15.90;;;7.25;;
75698;SDS011;64313;51.018;13.742;2022-11-20T10:13:46;17.40;;;7.67;;
75698;SDS011;64313;51.018;13.742;2022-11-20T10:27:52;18.80;;;7.35;;
75698;SDS011;64313;51.018;13.742;2022-11-20T10:30:31;15.52;;;7.00;;
75698;SDS011;64313;51.018;13.742;2022-11-20T10:36:33;16.65;;;7.03;;
75698;SDS011;64313;51.018;13.742;2022-11-20T10:39:00;15.45;;;7.07;;
75698;SDS011;64313;51.018;13.742;2022-11-20T10:41:32;15.32;;;6.85;;
75698;SDS011;64313;51.018;13.742;2022-11-20T10:44:05;18.02;;;7.13;;
75698;SDS011;64313;51.018;13.742;2022-11-20T10:46:43;14.10;;;6.68;;
75698;SDS011;64313;51.018;13.742;2022-11-20T10:49:16;15.98;;;6.88;;
75698;SDS011;64313;51.018;13.742;2022-11-20T10:51:49;13.30;;;5.93;;
75698;SDS011;64313;51.018;13.742;2022-11-20T10:54:36;14.55;;;6.20;;
75698;SDS011;64313;51.018;13.742;2022-11-20T11:02:32;15.05;;;6.45;;
75698;SDS011;64313;51.018;13.742;2022-11-20T11:04:58;15.57;;;6.78;;
75698;SDS011;64313;51.018;13.742;2022-11-20T11:07:36;13.45;;;6.05;;
75698;SDS011;64313;51.018;13.742;2022-11-20T11:10:12;14.60;;;6.03;;
75698;SDS011;64313;51.018;13.742;2022-11-20T11:15:14;13.97;;;6.43;;
75698;SDS011;64313;51.018;13.742;2022-11-20T11:17:51;15.82;;;6.45;;
75698;SDS011;64313;51.018;13.742;2022-11-20T11:20:17;13.93;;;6.00;;
75698;SDS011;64313;51.018;13.742;2022-11-20T11:25:28;13.20;;;5.80;;
75698;SDS011;64313;51.018;13.742;2022-11-20T11:28:19;13.55;;;5.70;;
75698;SDS011;64313;51.018;13.742;2022-11-20T11:30:46;14.35;;;5.53;;
75698;SDS011;64313;51.018;13.742;2022-11-20T11:35:49;13.93;;;5.90;;
75698;SDS011;64313;51.018;13.742;2022-11-20T11:38:23;12.23;;;5.45;;
75698;SDS011;64313;51.018;13.742;2022-11-20T11:40:57;10.50;;;5.25;;
75698;SDS011;64313;51.018;13.742;2022-11-20T11:43:24;11.40;;;5.07;;
75698;SDS011;64313;51.018;13.742;2022-11-20T11:48:54;10.40;;;4.35;;
75698;SDS011;64313;51.018;13.742;2022-11-20T11:51:26;9.05;;;3.80;;
75698;SDS011;64313;51.018;13.742;2022-11-20T11:53:58;10.90;;;4.00;;
75698;SDS011;64313;51.018;13.742;2022-11-20T11:56:24;9.68;;;3.95;;
75698;SDS011;64313;51.018;13.742;2022-11-20T11:58:52;9.75;;;4.28;;
75698;SDS011;64313;51.018;13.742;2022-11-20T12:04:09;10.48;;;3.95;;
75698;SDS011;64313;51.018;13.742;2022-11-20T12:06:45;11.63;;;4.13;;
75698;SDS011;64313;51.018;13.742;2022-11-20T12:09:24;9.85;;;4.18;;
75698;SDS011;64313;51.018;13.742;2022-11-20T12:11:59;11.57;;;4.38;;
75698;SDS011;64313;51.018;13.742;2022-11-20T12:14:35;10.73;;;4.18;;
75698;SDS011;64313;51.018;13.742;2022-11-20T12:17:03;9.77;;;4.32;;
75698;SDS011;64313;51.018;13.742;2022-11-20T12:19:30;10.88;;;4.68;;
75698;SDS011;64313;51.018;13.742;2022-11-20T12:22:01;11.70;;;4.53;;
75698;SDS011;64313;51.018;13.742;2022-11-20T12:25:22;12.35;;;5.05;;
75698;SDS011;64313;51.018;13.742;2022-11-20T12:30:21;14.20;;;5.60;;
75698;SDS011;64313;51.018;13.742;2022-11-20T12:41:27;9.95;;;4.55;;
75698;SDS011;64313;51.018;13.742;2022-11-20T12:47:50;10.48;;;4.30;;
75698;SDS011;64313;51.018;13.742;2022-11-20T12:50:21;12.23;;;4.70;;
75698;SDS011;64313;51.018;13.742;2022-11-20T12:52:49;10.35;;;4.72;;
75698;SDS011;64313;51.018;13.742;2022-11-20T12:55:23;10.80;;;4.25;;
75698;SDS011;64313;51.018;13.742;2022-11-20T12:58:20;11.45;;;4.68;;
75698;SDS011;64313;51.018;13.742;2022-11-20T13:04:07;15.07;;;5.65;;
75698;SDS011;64313;51.018;13.742;2022-11-20T13:06:41;11.70;;;5.00;;
75698;SDS011;64313;51.018;13.742;2022-11-20T13:09:10;9.90;;;4.72;;
75698;SDS011;64313;51.018;13.742;2022-11-20T13:20:29;10.52;;;4.75;;
75698;SDS011;64313;51.018;13.742;2022-11-20T13:22:56;10.27;;;4.50;;
75698;SDS011;64313;51.018;13.742;2022-11-20T13:25:25;10.40;;;4.38;;
75698;SDS011;64313;51.018;13.742;2022-11-20T13:27:59;10.20;;;4.55;;
75698;SDS011;64313;51.018;13.742;2022-11-20T13:30:29;11.02;;;4.72;;
75698;SDS011;64313;51.018;13.742;2022-11-20T13:35:55;10.70;;;5.00;;
75698;SDS011;64313;51.018;13.742;2022-11-20T13:38:23;9.90;;;4.47;;
75698;SDS011;64313;51.018;13.742;2022-11-20T13:43:40;10.20;;;4.72;;
75698;SDS011;64313;51.018;13.742;2022-11-20T13:46:08;9.95;;;4.18;;
75698;SDS011;64313;51.018;13.742;2022-11-20T13:48:41;8.95;;;3.80;;
75698;SDS011;64313;51.018;13.742;2022-11-20T13:56:43;8.50;;;3.50;;
75698;SDS011;64313;51.018;13.742;2022-11-20T14:02:18;7.95;;;3.50;;
75698;SDS011;64313;51.018;13.742;2022-11-20T14:04:46;9.05;;;4.03;;
75698;SDS011;64313;51.018;13.742;2022-11-20T14:07:14;7.97;;;3.72;;
75698;SDS011;64313;51.018;13.742;2022-11-20T14:09:49;7.10;;;3.35;;
75698;SDS011;64313;51.018;13.742;2022-11-20T14:12:20;8.85;;;3.75;;
75698;SDS011;64313;51.018;13.742;2022-11-20T14:14:50;8.18;;;3.30;;
75698;SDS011;64313;51.018;13.742;2022-11-20T14:17:21;10.40;;;3.53;;
75698;SDS011;64313;51.018;13.742;2022-11-20T14:19:50;7.72;;;3.30;;
75698;SDS011;64313;51.018;13.742;2022-11-20T14:22:18;8.07;;;3.80;;
75698;SDS011;64313;51.018;13.742;2022-11-20T14:24:45;8.80;;;3.75;;
75698;SDS011;64313;51.018;13.742;2022-11-20T14:27:16;8.40;;;3.53;;
75698;SDS011;64313;51.018;13.742;2022-11-20T14:29:44;6.88;;;3.22;;
75698;SDS011;64313;51.018;13.742;2022-11-20T14:32:11;8.70;;;3.65;;
75698;SDS011;64313;51.018;13.742;2022-11-20T14:34:41;11.15;;;4.95;;
75698;SDS011;64313;51.018;13.742;2022-11-20T14:37:12;9.25;;;4.00;;
75698;SDS011;64313;51.018;13.742;2022-11-20T14:39:46;11.02;;;3.92;;
75698;SDS011;64313;51.018;13.742;2022-11-20T14:42:27;9.55;;;3.83;;
75698;SDS011;64313;51.018;13.742;2022-11-20T14:44:57;8.60;;;3.70;;
75698;SDS011;64313;51.018;13.742;2022-11-20T14:47:25;11.20;;;4.35;;
75698;SDS011;64313;51.018;13.742;2022-11-20T14:49:54;10.15;;;4.13;;
75698;SDS011;64313;51.018;13.742;2022-11-20T14:52:21;9.52;;;4.50;;
75698;SDS011;64313;51.018;13.742;2022-11-20T14:54:49;10.40;;;4.50;;
75698;SDS011;64313;51.018;13.742;2022-11-20T14:57:24;8.90;;;3.75;;
75698;SDS011;64313;51.018;13.742;2022-11-20T14:59:49;8.73;;;3.80;;
75698;SDS011;64313;51.018;13.742;2022-11-20T15:02:15;7.88;;;3.75;;
75698;SDS011;64313;51.018;13.742;2022-11-20T15:04:50;8.48;;;4.15;;
75698;SDS011;64313;51.018;13.742;2022-11-20T15:07:29;10.77;;;4.65;;
75698;SDS011;64313;51.018;13.742;2022-11-20T15:10:00;9.38;;;4.47;;
75698;SDS011;64313;51.018;13.742;2022-11-20T15:12:31;9.93;;;4.45;;
75698;SDS011;64313;51.018;13.742;2022-11-20T15:14:58;9.55;;;4.28;;
75698;SDS011;64313;51.018;13.742;2022-11-20T15:17:25;10.50;;;4.90;;
75698;SDS011;64313;51.018;13.742;2022-11-20T15:19:52;9.30;;;4.05;;
75698;SDS011;64313;51.018;13.742;2022-11-20T15:22:20;11.18;;;4.53;;
75698;SDS011;64313;51.018;13.742;2022-11-20T15:24:45;10.88;;;5.00;;
75698;SDS011;64313;51.018;13.742;2022-11-20T15:27:11;8.90;;;4.13;;
75698;SDS011;64313;51.018;13.742;2022-11-20T15:29:37;10.77;;;4.72;;
75698;SDS011;64313;51.018;13.742;2022-11-20T15:32:02;11.15;;;5.00;;
75698;SDS011;64313;51.018;13.742;2022-11-20T15:34:28;13.00;;;5.15;;
75698;SDS011;64313;51.018;13.742;2022-11-20T15:36:53;13.10;;;5.35;;
75698;SDS011;64313;51.018;13.742;2022-11-20T15:39:19;13.45;;;5.55;;
75698;SDS011;64313;51.018;13.742;2022-11-20T15:41:45;11.80;;;5.45;;
75698;SDS011;64313;51.018;13.742;2022-11-20T15:44:10;10.18;;;4.65;;
75698;SDS011;64313;51.018;13.742;2022-11-20T15:46:36;12.52;;;5.78;;
75698;SDS011;64313;51.018;13.742;2022-11-20T15:49:05;11.15;;;5.40;;
75698;SDS011;64313;51.018;13.742;2022-11-20T15:51:35;10.55;;;5.05;;
75698;SDS011;64313;51.018;13.742;2022-11-20T15:54:08;11.77;;;4.70;;
75698;SDS011;64313;51.018;13.742;2022-11-20T15:56:36;10.57;;;4.72;;
75698;SDS011;64313;51.018;13.742;2022-11-20T15:59:02;11.70;;;5.70;;
75698;SDS011;64313;51.018;13.742;2022-11-20T16:01:27;14.95;;;6.80;;
75698;SDS011;64313;51.018;13.742;2022-11-20T16:03:53;17.10;;;6.50;;
75698;SDS011;64313;51.018;13.742;2022-11-20T16:06:18;13.95;;;5.95;;
75698;SDS011;64313;51.018;13.742;2022-11-20T16:08:44;13.70;;;6.20;;